Time;durP1;ratioP1;P1;durP2;ratioP2;P2;SDS_P1;SDS_P2;PMS_P1;PMS_P2;Temp;Humidity;BMP_temperature;BMP_pressure;BME280_temperature;BME280_humidity;BME280_pressure;Samples;Min_cycle;Max_cycle;Signal;HPM_P1;HPM_P2
2021/05/07 00:01:41;;;;;;;3.42;1.10;;;;;;;7.98;82.07;94868.28;5029969;28;20100;-49
2021/05/07 00:04:09;;;;;;;2.67;1.00;;;;;;;8.02;81.42;94863.78;5029746;28;20068;-49
2021/05/07 00:06:36;;;;;;;1.58;0.70;;;;;;;8.01;81.19;94858.75;5028743;28;20049;-51
2021/05/07 00:09:05;;;;;;;3.40;1.00;;;;;;;8.08;79.27;94862.41;5027552;28;20077;-54
2021/05/07 00:11:33;;;;;;;3.25;0.95;;;;;;;8.03;80.06;94864.59;5029836;28;20057;-50
2021/05/07 00:14:02;;;;;;;1.33;0.77;;;;;;;8.06;79.47;94858.50;5028471;28;20066;-54
2021/05/07 00:16:29;;;;;;;2.15;0.52;;;;;;;8.09;78.06;94858.63;5028028;28;20054;-51
2021/05/07 00:18:55;;;;;;;1.60;0.60;;;;;;;8.05;78.62;94844.25;5029827;28;20037;-51
2021/05/07 00:21:37;;;;;;;2.65;0.73;;;;;;;8.03;79.50;94849.19;5029786;28;20132;-50
2021/05/07 00:24:05;;;;;;;2.05;0.52;;;;;;;7.94;79.01;94862.81;5026315;28;20058;-50
2021/05/07 00:26:32;;;;;;;0.52;0.50;;;;;;;7.88;80.39;94858.00;5029350;28;20085;-53
2021/05/07 00:28:58;;;;;;;2.47;0.70;;;;;;;7.88;78.67;94860.69;5027726;28;20525;-52
2021/05/07 00:31:25;;;;;;;1.45;0.60;;;;;;;7.82;78.94;94848.59;5029210;28;20430;-52
2021/05/07 00:34:08;;;;;;;1.05;0.50;;;;;;;7.77;79.66;94857.69;5029453;28;20053;-53
2021/05/07 00:36:34;;;;;;;1.13;0.43;;;;;;;7.82;78.47;94853.97;5017635;28;20050;-50
2021/05/07 00:39:04;;;;;;;1.05;0.63;;;;;;;7.78;78.62;94864.63;5028719;28;20045;-49
2021/05/07 00:41:31;;;;;;;3.72;0.82;;;;;;;7.79;78.12;94865.41;5028085;28;20045;-49
2021/05/07 00:43:58;;;;;;;1.33;0.40;;;;;;;7.81;77.41;94866.66;5028434;28;20041;-49
2021/05/07 00:46:24;;;;;;;2.63;0.73;;;;;;;7.73;78.29;94864.84;5028478;28;20045;-50
2021/05/07 00:48:51;;;;;;;1.00;0.50;;;;;;;7.68;79.14;94865.88;5028397;28;20092;-49
2021/05/07 00:51:17;;;;;;;2.80;0.90;;;;;;;7.62;79.90;94861.84;5027552;28;20103;-49
2021/05/07 00:53:44;;;;;;;1.42;0.60;;;;;;;7.65;79.79;94855.03;5030643;28;20068;-53
2021/05/07 00:56:11;;;;;;;1.05;0.50;;;;;;;7.60;80.09;94856.03;5032527;28;20053;-49
2021/05/07 00:58:38;;;;;;;0.40;0.40;;;;;;;7.60;80.40;94855.25;5027294;28;20041;-52
2021/05/07 01:01:04;;;;;;;1.67;0.60;;;;;;;7.60;80.56;94863.31;5033758;28;20100;-53
2021/05/07 01:03:31;;;;;;;1.63;0.47;;;;;;;7.58;80.75;94860.19;5033346;28;20052;-52
2021/05/07 01:06:00;;;;;;;3.03;0.68;;;;;;;7.57;81.34;94864.00;5033208;28;20136;-52
2021/05/07 01:08:27;;;;;;;1.45;0.47;;;;;;;7.61;80.84;94856.81;5029966;28;20479;-51
2021/05/07 01:10:56;;;;;;;1.85;0.40;;;;;;;7.67;80.30;94856.25;5032903;28;20045;-48
2021/05/07 01:13:24;;;;;;;0.45;0.40;;;;;;;7.69;80.42;94854.00;5033369;28;20057;-52
2021/05/07 01:15:57;;;;;;;;;;;;;;;7.70;80.89;94852.06;5031530;28;20061;-49
2021/05/07 01:18:28;;;;;;;0.52;0.50;;;;;;;7.71;79.94;94859.03;5028942;28;20385;-54
2021/05/07 01:20:55;;;;;;;1.52;0.68;;;;;;;7.72;80.37;94861.38;5020550;28;20049;-53
2021/05/07 01:23:21;;;;;;;1.40;0.70;;;;;;;7.71;80.83;94864.44;5030909;28;20574;-51
2021/05/07 01:25:49;;;;;;;1.70;0.40;;;;;;;7.68;81.29;94865.88;5025334;28;20053;-51
2021/05/07 01:28:16;;;;;;;0.47;0.30;;;;;;;7.72;80.69;94871.38;5024587;28;20041;-50
2021/05/07 01:30:45;;;;;;;1.50;0.60;;;;;;;7.76;80.70;94855.31;5032343;28;20078;-52
2021/05/07 01:33:21;;;;;;;1.00;0.43;;;;;;;7.72;81.31;94868.69;5031457;28;20054;-51
2021/05/07 01:35:49;;;;;;;0.30;0.30;;;;;;;7.71;81.32;94865.22;5032619;28;20045;-51
2021/05/07 01:38:17;;;;;;;1.40;0.55;;;;;;;7.69;81.83;94867.44;5015753;28;20057;-51
2021/05/07 01:40:47;;;;;;;1.95;0.40;;;;;;;7.69;82.03;94859.38;5031830;28;20045;-52
2021/05/07 01:43:15;;;;;;;1.17;0.40;;;;;;;7.64;82.84;94870.38;5032678;28;20506;-55
2021/05/07 01:45:45;;;;;;;1.52;0.47;;;;;;;7.61;82.33;94889.91;5023312;28;20073;-55
2021/05/07 01:48:15;;;;;;;1.10;0.50;;;;;;;7.63;82.42;94881.47;5030155;28;20053;-53
2021/05/07 01:50:44;;;;;;;0.98;0.50;;;;;;;7.63;82.33;94879.56;5032739;28;20048;-48
2021/05/07 01:53:12;;;;;;;1.15;0.40;;;;;;;7.63;82.46;94881.47;5022717;28;20172;-50
2021/05/07 01:55:46;;;;;;;1.15;0.60;;;;;;;7.64;81.96;94891.94;5032015;28;20048;-50
2021/05/07 01:58:16;;;;;;;4.32;1.00;;;;;;;7.59;82.81;94878.69;5030269;28;20057;-53
2021/05/07 02:00:45;;;;;;;1.98;0.75;;;;;;;7.57;82.79;94870.19;5031511;28;20119;-49
2021/05/07 02:03:12;;;;;;;0.80;0.50;;;;;;;7.59;83.02;94883.28;5031795;28;20124;-52
2021/05/07 02:05:50;;;;;;;1.33;0.63;;;;;;;7.59;83.40;94884.06;5028831;28;20049;-52
2021/05/07 02:08:16;;;;;;;2.50;0.60;;;;;;;7.56;82.63;94879.34;5030405;28;20045;-54
2021/05/07 02:10:44;;;;;;;0.57;0.55;;;;;;;7.55;82.96;94883.19;5030395;28;20046;-53
2021/05/07 02:13:12;;;;;;;2.15;0.70;;;;;;;7.57;83.07;94890.91;5030312;28;20042;-53
2021/05/07 02:15:44;;;;;;;3.08;0.80;;;;;;;7.58;82.36;94887.13;5030161;28;20052;-48
2021/05/07 02:18:14;;;;;;;1.23;0.65;;;;;;;7.62;82.96;94894.16;5011492;28;20065;-53
2021/05/07 02:20:46;;;;;;;1.25;0.52;;;;;;;7.60;81.76;94891.00;5031836;28;20088;-50
2021/05/07 02:23:14;;;;;;;0.95;0.70;;;;;;;7.57;82.97;94894.41;5031187;28;20045;-51
2021/05/07 02:25:43;;;;;;;3.17;1.13;;;;;;;7.59;81.96;94884.06;5025221;28;20700;-53
2021/05/07 02:28:15;;;;;;;2.58;0.70;;;;;;;7.62;81.46;94888.78;5021046;28;20143;-53
2021/05/07 02:30:42;;;;;;;1.48;0.63;;;;;;;7.60;81.33;94874.84;5031142;28;20131;-53
2021/05/07 02:33:09;;;;;;;1.05;0.65;;;;;;;7.60;81.09;94891.00;5029823;28;20418;-55
2021/05/07 02:35:36;;;;;;;2.75;0.75;;;;;;;7.65;80.28;94887.31;5029415;28;20049;-49
2021/05/07 02:38:04;;;;;;;3.90;0.90;;;;;;;7.62;80.61;94896.06;5028568;28;20137;-56
2021/05/07 02:40:31;;;;;;;2.75;0.80;;;;;;;7.64;80.63;94896.53;5029873;28;20049;-50
2021/05/07 02:42:58;;;;;;;1.20;0.63;;;;;;;7.64;80.26;94886.53;5030924;28;20049;-51
2021/05/07 02:45:30;;;;;;;1.35;0.80;;;;;;;7.59;80.74;94869.81;5023795;28;20099;-50
2021/05/07 02:47:56;;;;;;;2.85;0.70;;;;;;;7.61;80.03;94875.66;5029955;28;20140;-48
2021/05/07 02:50:23;;;;;;;0.90;0.50;;;;;;;7.56;79.86;94879.34;5029656;28;20056;-55
2021/05/07 02:52:50;;;;;;;3.88;0.90;;;;;;;7.55;79.37;94880.50;5023930;28;20074;-52
2021/05/07 02:55:17;;;;;;;2.83;1.00;;;;;;;7.56;79.81;94875.88;5028138;28;20063;-51
2021/05/07 02:57:43;;;;;;;2.10;0.65;;;;;;;7.48;79.80;94872.97;5025033;28;20034;-50
2021/05/07 03:00:13;;;;;;;1.25;0.70;;;;;;;7.47;79.59;94878.69;5025748;28;20052;-54
2021/05/07 03:02:39;;;;;;;2.90;0.98;;;;;;;7.37;80.08;94879.16;5029455;28;20099;-54
2021/05/07 03:05:07;;;;;;;1.63;0.70;;;;;;;7.31;80.51;94878.59;5031184;28;20045;-54
2021/05/07 03:07:33;;;;;;;2.30;0.75;;;;;;;7.29;80.26;94870.09;5025612;28;20037;-54
2021/05/07 03:10:00;;;;;;;1.52;0.77;;;;;;;7.26;80.75;94876.91;5030898;28;20564;-57
2021/05/07 03:12:27;;;;;;;1.80;0.52;;;;;;;7.28;80.21;94878.47;5025160;28;20170;-58
2021/05/07 03:14:54;;;;;;;2.22;0.65;;;;;;;7.24;80.40;94876.44;5030573;28;20064;-54
2021/05/07 03:17:20;;;;;;;1.55;0.63;;;;;;;7.25;80.63;94880.72;5029059;28;20048;-53
2021/05/07 03:19:48;;;;;;;1.42;0.70;;;;;;;7.28;79.79;94891.94;5030739;28;20064;-54
2021/05/07 03:22:14;;;;;;;1.90;0.52;;;;;;;7.26;79.80;94892.28;5031783;28;20084;-51
2021/05/07 03:24:42;;;;;;;2.13;0.70;;;;;;;7.30;79.26;94903.16;5017898;28;20053;-55
2021/05/07 03:27:09;;;;;;;2.60;0.70;;;;;;;7.29;79.47;94907.75;5029599;28;20103;-57
2021/05/07 03:29:35;;;;;;;2.90;0.70;;;;;;;7.33;79.22;94911.34;5031203;28;20056;-51
2021/05/07 03:32:02;;;;;;;1.90;0.60;;;;;;;7.33;79.55;94916.72;5030275;28;20061;-57
2021/05/07 03:34:28;;;;;;;3.10;0.68;;;;;;;7.31;80.01;94912.78;5030691;28;20478;-53
2021/05/07 03:36:55;;;;;;;1.48;0.80;;;;;;;7.30;79.51;94913.91;5025175;28;20549;-54
2021/05/07 03:39:22;;;;;;;2.33;0.70;;;;;;;7.33;80.32;94916.72;5030146;28;20068;-55
2021/05/07 03:41:48;;;;;;;2.45;0.70;;;;;;;7.35;79.57;94924.47;5030506;28;20503;-53
2021/05/07 03:44:15;;;;;;;2.67;0.70;;;;;;;7.37;79.45;94935.66;5029882;28;20473;-52
2021/05/07 03:46:41;;;;;;;2.85;0.93;;;;;;;7.32;80.39;94941.28;5024623;28;20332;-50
2021/05/07 03:49:08;;;;;;;3.95;1.00;;;;;;;7.21;81.75;94936.34;5030529;28;20111;-53
2021/05/07 03:51:34;;;;;;;2.33;1.00;;;;;;;7.18;nan;94946.97;5028768;28;20049;-50
2021/05/07 03:54:01;;;;;;;5.28;1.00;;;;;;;7.08;82.76;94945.47;5029873;28;20049;-52
2021/05/07 03:56:28;;;;;;;4.70;0.90;;;;;;;6.94;84.79;94943.09;5015912;28;20057;-49
2021/05/07 03:58:55;;;;;;;3.92;1.00;;;;;;;6.87;85.21;94950.16;5021596;28;20463;-51
2021/05/07 04:01:24;;;;;;;4.63;1.00;;;;;;;6.81;85.73;94946.88;5030285;28;20045;-50
2021/05/07 04:03:51;;;;;;;2.88;0.90;;;;;;;6.70;85.70;94951.91;5030055;28;20061;-50
2021/05/07 04:06:20;;;;;;;3.92;1.20;;;;;;;6.46;87.65;94946.41;5025513;28;20045;-50
2021/05/07 04:09:04;;;;;;;5.63;1.10;;;;;;;6.32;89.00;94935.97;5022197;28;20125;-49
2021/05/07 04:11:35;;;;;;;3.72;1.15;;;;;;;6.25;89.25;94936.50;5029856;28;20148;-50
2021/05/07 04:14:02;;;;;;;2.80;1.33;;;;;;;6.14;89.25;94940.66;5029783;28;20080;-53
2021/05/07 04:16:28;;;;;;;2.72;1.13;;;;;;;6.11;89.50;94944.03;5024354;28;20056;-49
2021/05/07 04:18:55;;;;;;;6.22;1.45;;;;;;;5.99;90.55;94936.69;5030367;28;20076;-52
2021/05/07 04:21:25;;;;;;;4.85;1.15;;;;;;;6.03;89.17;94939.50;5029064;28;20045;-53
2021/05/07 04:23:51;;;;;;;3.28;1.30;;;;;;;6.01;89.49;94950.59;5024597;28;20141;-52
2021/05/07 04:26:19;;;;;;;3.55;1.30;;;;;;;6.01;90.06;94955.13;5030109;28;20056;-54
2021/05/07 04:28:46;;;;;;;3.72;1.25;;;;;;;5.93;90.62;94961.38;5018782;28;20061;-54
2021/05/07 04:31:13;;;;;;;2.95;1.17;;;;;;;5.93;90.29;94966.75;5034917;28;20056;-53
2021/05/07 04:33:39;;;;;;;3.00;1.08;;;;;;;5.94;89.81;94971.78;5034410;28;20049;-53
2021/05/07 04:36:06;;;;;;;3.13;1.10;;;;;;;5.97;90.08;94954.22;5028945;28;20446;-55
2021/05/07 04:38:33;;;;;;;4.05;1.17;;;;;;;5.97;89.76;94955.00;5031748;28;20053;-53
2021/05/07 04:40:59;;;;;;;5.88;1.33;;;;;;;5.96;90.37;94960.72;5034172;28;20064;-52
2021/05/07 04:43:26;;;;;;;2.55;1.00;;;;;;;5.94;89.70;94952.19;5029300;28;20525;-53
2021/05/07 04:45:53;;;;;;;4.78;1.20;;;;;;;6.00;90.18;94946.31;5030264;28;20415;-54
2021/05/07 04:48:20;;;;;;;4.55;1.15;;;;;;;6.01;89.69;94930.97;5032822;28;20045;-55
2021/05/07 04:50:49;;;;;;;3.65;1.20;;;;;;;6.08;89.22;94947.38;5033578;28;20046;-53
2021/05/07 04:53:16;;;;;;;4.95;1.50;;;;;;;6.12;90.09;94975.13;5004829;28;20120;-58
2021/05/07 04:55:42;;;;;;;4.10;1.20;;;;;;;6.05;90.39;94978.34;5030409;28;20457;-55
2021/05/07 04:58:10;;;;;;;3.00;1.13;;;;;;;6.03;90.39;94993.19;5029949;28;20080;-55
2021/05/07 05:00:37;;;;;;;2.35;1.15;;;;;;;6.07;90.93;95002.16;5034224;28;20496;-53
2021/05/07 05:03:03;;;;;;;4.72;1.30;;;;;;;5.97;91.64;95005.25;5033747;28;20076;-55
2021/05/07 05:05:31;;;;;;;4.68;1.42;;;;;;;5.91;92.13;95011.88;5033828;28;20115;-54
2021/05/07 05:07:57;;;;;;;5.10;1.20;;;;;;;5.84;92.13;95007.81;5029942;28;20530;-53
2021/05/07 05:10:24;;;;;;;3.88;1.20;;;;;;;5.88;91.81;95010.63;5032133;28;20053;-56
2021/05/07 05:12:50;;;;;;;3.92;1.15;;;;;;;5.88;91.21;95004.47;5032781;28;20498;-53
2021/05/07 05:15:19;;;;;;;1.92;0.82;;;;;;;5.78;91.26;95016.38;5031103;28;20642;-54
2021/05/07 05:17:55;;;;;;;3.25;0.98;;;;;;;5.84;91.96;95017.75;5031874;28;20495;-51
2021/05/07 05:20:22;;;;;;;3.35;0.90;;;;;;;5.77;91.45;95018.25;5032623;28;20064;-54
2021/05/07 05:22:49;;;;;;;2.00;0.90;;;;;;;5.88;92.77;95034.00;5030477;28;20140;-52
2021/05/07 05:25:15;;;;;;;2.17;1.10;;;;;;;5.79;91.93;95045.59;5032401;28;20064;-50
2021/05/07 05:27:42;;;;;;;1.45;0.68;;;;;;;5.75;91.91;95047.34;5027062;28;20403;-53
2021/05/07 05:30:09;;;;;;;2.30;0.80;;;;;;;5.74;91.92;95045.75;5032362;28;20053;-54
2021/05/07 05:32:36;;;;;;;1.73;0.70;;;;;;;5.68;91.61;95046.25;5032293;28;20057;-49
2021/05/07 05:35:05;;;;;;;2.08;0.85;;;;;;;5.73;92.38;95049.56;5031951;28;20124;-52
2021/05/07 05:37:31;;;;;;;2.97;0.95;;;;;;;5.67;92.45;95050.84;5023740;28;20060;-52
2021/05/07 05:39:58;;;;;;;3.75;0.90;;;;;;;5.73;92.85;95065.66;5031569;28;20061;-50
2021/05/07 05:42:30;;;;;;;3.50;1.10;;;;;;;5.71;93.17;95059.81;5033314;28;20122;-56
2021/05/07 05:44:56;;;;;;;3.05;1.00;;;;;;;5.86;92.88;95063.88;5031107;28;20041;-58
2021/05/07 05:47:23;;;;;;;2.70;1.42;;;;;;;5.95;93.40;95061.97;5031830;28;20047;-55
2021/05/07 05:49:55;;;;;;;2.83;1.20;;;;;;;5.96;93.01;95074.28;5032001;28;20049;-54
2021/05/07 05:52:21;;;;;;;2.00;1.30;;;;;;;6.25;92.34;95078.06;5028837;28;20137;-53
2021/05/07 05:54:49;;;;;;;5.22;1.67;;;;;;;5.93;93.96;95079.50;5030721;28;20049;-53
2021/05/07 05:57:15;;;;;;;2.75;1.00;;;;;;;5.74;92.90;95083.31;5030892;28;20466;-56
2021/05/07 05:59:41;;;;;;;2.50;1.02;;;;;;;5.74;93.25;95088.69;5033343;28;20052;-58
2021/05/07 06:02:08;;;;;;;3.55;0.98;;;;;;;5.59;93.26;95094.59;5031365;28;20503;-55
2021/05/07 06:04:35;;;;;;;1.60;0.90;;;;;;;5.59;93.03;95100.75;5033454;28;20045;-56
2021/05/07 06:07:02;;;;;;;1.60;0.70;;;;;;;5.53;90.99;95098.56;5026891;28;20056;-55
2021/05/07 06:09:29;;;;;;;1.75;0.60;;;;;;;5.66;91.21;95086.06;5030696;28;20045;-50
2021/05/07 06:11:55;;;;;;;3.03;0.50;;;;;;;5.64;89.30;95089.06;5030597;28;20053;-54
2021/05/07 06:14:22;;;;;;;1.55;0.40;;;;;;;5.75;88.04;95100.22;5032906;28;20058;-52
2021/05/07 06:17:05;;;;;;;0.45;0.38;;;;;;;5.65;88.18;95087.16;5027967;28;20045;-50
2021/05/07 06:19:32;;;;;;;0.60;0.40;;;;;;;5.62;88.62;95085.88;5031179;28;20503;-54
2021/05/07 06:21:59;;;;;;;1.48;0.60;;;;;;;5.66;89.43;95069.97;5031181;28;20180;-49
2021/05/07 06:24:30;;;;;;;1.25;0.60;;;;;;;5.91;88.72;95074.41;5029335;28;20125;-51
2021/05/07 06:26:56;;;;;;;0.35;0.35;;;;;;;5.82;89.37;95069.09;5031084;28;20345;-53
2021/05/07 06:29:23;;;;;;;0.95;0.55;;;;;;;5.91;89.65;95070.94;5029499;28;20073;-53
2021/05/07 06:31:50;;;;;;;1.60;0.63;;;;;;;5.93;89.14;95072.22;5031337;28;20065;-49
2021/05/07 06:34:16;;;;;;;1.20;0.63;;;;;;;6.01;90.48;95068.72;5031496;28;20167;-49
2021/05/07 06:36:42;;;;;;;3.63;1.00;;;;;;;6.05;89.98;95071.56;5024407;28;20065;-53
2021/05/07 06:39:09;;;;;;;1.83;1.00;;;;;;;6.20;90.21;95065.59;5020658;28;20057;-55
2021/05/07 06:41:36;;;;;;;3.53;0.95;;;;;;;6.28;90.46;95074.75;5032027;28;20144;-56
2021/05/07 06:44:03;;;;;;;2.40;0.80;;;;;;;6.32;89.52;95076.44;5031762;28;20472;-56
2021/05/07 06:46:29;;;;;;;2.45;1.27;;;;;;;6.45;89.51;95073.84;5028348;28;20056;-52
2021/05/07 06:48:56;;;;;;;1.48;0.80;;;;;;;6.40;88.36;95072.13;5031258;28;20041;-52
2021/05/07 06:51:22;;;;;;;1.55;0.60;;;;;;;6.58;88.14;95074.69;5029592;28;20084;-56
2021/05/07 06:53:49;;;;;;;1.17;0.70;;;;;;;6.89;87.92;95060.84;5031232;28;20049;-56
2021/05/07 06:56:20;;;;;;;5.40;1.27;;;;;;;6.89;89.10;95061.66;5028360;28;20728;-55
2021/05/07 06:58:48;;;;;;;2.88;0.70;;;;;;;6.91;86.85;95066.69;5030788;28;20053;-58
2021/05/07 07:01:14;;;;;;;2.28;1.15;;;;;;;6.89;88.46;95060.84;5031269;28;20482;-52
2021/05/07 07:03:42;;;;;;;1.08;0.60;;;;;;;6.97;86.24;95063.47;5030289;28;20110;-51
2021/05/07 07:06:09;;;;;;;1.60;0.70;;;;;;;6.95;85.95;95054.94;5025876;28;20100;-50
2021/05/07 07:08:35;;;;;;;0.98;0.55;;;;;;;6.89;85.82;95052.78;5022367;28;20487;-51
2021/05/07 07:11:02;;;;;;;2.03;0.70;;;;;;;7.03;85.62;95059.47;5030522;28;20475;-48
2021/05/07 07:13:28;;;;;;;1.95;0.88;;;;;;;7.14;86.66;95059.81;5030098;28;20064;-55
2021/05/07 07:15:55;;;;;;;2.50;0.47;;;;;;;7.17;83.64;95063.75;5029377;28;20056;-52
2021/05/07 07:18:21;;;;;;;0.98;0.60;;;;;;;7.34;84.16;95071.66;5029342;28;20053;-53
2021/05/07 07:20:49;;;;;;;1.65;0.65;;;;;;;7.43;85.17;95074.25;5029125;28;20057;-57
2021/05/07 07:23:16;;;;;;;1.00;0.60;;;;;;;7.35;83.93;95075.16;5028446;28;20085;-55
2021/05/07 07:25:44;;;;;;;1.58;0.45;;;;;;;7.56;83.71;95061.63;5030411;28;20046;-54
2021/05/07 07:28:11;;;;;;;2.17;0.60;;;;;;;7.50;82.97;95053.75;5027464;28;20239;-57
2021/05/07 07:30:38;;;;;;;0.65;0.40;;;;;;;7.40;82.42;95048.78;5030235;28;20053;-55
2021/05/07 07:33:04;;;;;;;0.55;0.50;;;;;;;7.35;83.97;95057.09;5030841;28;20053;-58
2021/05/07 07:35:31;;;;;;;0.85;0.50;;;;;;;7.47;83.07;95059.00;5018800;28;20049;-54
2021/05/07 07:37:57;;;;;;;0.73;0.50;;;;;;;7.49;84.16;95054.88;5026942;28;20045;-56
2021/05/07 07:40:24;;;;;;;0.80;0.50;;;;;;;7.37;84.87;95048.69;5031214;28;20060;-53
2021/05/07 07:42:50;;;;;;;2.22;0.68;;;;;;;7.37;84.50;95062.91;5031741;28;20493;-55
2021/05/07 07:45:17;;;;;;;1.08;0.60;;;;;;;7.32;86.02;95051.59;5036101;28;20525;-57
2021/05/07 07:47:44;;;;;;;2.35;0.60;;;;;;;7.26;85.88;95056.41;5022909;28;20045;-55
2021/05/07 07:50:12;;;;;;;2.22;0.68;;;;;;;7.21;87.24;95057.41;5038797;28;20048;-53
2021/05/07 07:52:39;;;;;;;1.20;0.60;;;;;;;7.23;88.96;95068.59;5032926;28;20045;-53
2021/05/07 07:55:08;;;;;;;1.55;0.60;;;;;;;7.04;89.13;95079.06;5044278;28;20065;-55
2021/05/07 07:57:34;;;;;;;2.17;0.98;;;;;;;7.07;90.43;95099.13;5027260;28;20056;-56
2021/05/07 08:00:02;;;;;;;3.08;1.45;;;;;;;6.59;88.97;95121.94;5035869;28;20050;-53
2021/05/07 08:02:38;;;;;;;2.95;2.05;;;;;;;5.88;90.66;95120.69;5050402;28;20063;-56
2021/05/07 08:05:06;;;;;;;3.78;2.00;;;;;;;5.61;91.51;95135.31;5049492;28;20103;-51
2021/05/07 08:07:32;;;;;;;1.20;0.73;;;;;;;5.37;90.76;95128.56;5031127;28;20623;-49
2021/05/07 08:09:59;;;;;;;0.80;0.80;;;;;;;5.25;90.70;95138.38;5040926;28;20514;-51
2021/05/07 08:12:25;;;;;;;0.52;0.32;;;;;;;5.11;89.92;95147.38;5037749;28;20049;-46
2021/05/07 08:14:52;;;;;;;0.80;0.50;;;;;;;5.14;90.27;95151.31;5035326;28;20391;-50
2021/05/07 08:17:19;;;;;;;0.55;0.47;;;;;;;5.10;88.87;95153.03;5039735;28;20040;-49
2021/05/07 08:19:49;;;;;;;0.55;0.50;;;;;;;5.14;90.75;95164.72;5036247;28;20057;-48
2021/05/07 08:22:16;;;;;;;1.42;0.50;;;;;;;5.12;89.91;95175.75;5034042;28;20415;-57
2021/05/07 08:24:44;;;;;;;0.75;0.40;;;;;;;5.12;89.92;95174.97;5032688;28;20056;-56
2021/05/07 08:27:11;;;;;;;1.40;0.50;;;;;;;4.89;89.09;95182.38;5034785;28;20057;-50
2021/05/07 08:29:38;;;;;;;1.25;0.70;;;;;;;4.92;91.40;95189.78;5025533;28;20053;-52
2021/05/07 08:32:05;;;;;;;1.17;0.60;;;;;;;4.62;90.22;95197.63;5036583;28;20049;-49
2021/05/07 08:34:32;;;;;;;0.57;0.50;;;;;;;4.44;90.01;95198.69;5044879;28;20132;-52
2021/05/07 08:36:58;;;;;;;0.65;0.55;;;;;;;4.45;90.90;95208.28;5021525;28;20056;-51
2021/05/07 08:39:24;;;;;;;1.88;0.70;;;;;;;4.43;90.69;95221.22;5028898;28;20060;-52
2021/05/07 08:41:51;;;;;;;1.00;0.50;;;;;;;4.60;90.81;95239.22;5042099;28;20123;-50
2021/05/07 08:44:18;;;;;;;0.52;0.40;;;;;;;4.27;88.89;95228.09;5033946;28;20057;-50
2021/05/07 08:46:45;;;;;;;0.82;0.40;;;;;;;4.21;90.25;95230.88;5034645;28;20507;-49
2021/05/07 08:49:17;;;;;;;2.58;0.60;;;;;;;4.18;90.43;95223.47;5046517;28;20123;-51
2021/05/07 08:51:44;;;;;;;1.83;0.60;;;;;;;4.19;90.63;95229.59;5032261;28;20064;-52
2021/05/07 08:54:11;;;;;;;0.30;0.30;;;;;;;4.17;89.25;95229.16;5038761;28;20054;-53
2021/05/07 08:56:38;;;;;;;1.13;0.60;;;;;;;4.27;91.12;95231.53;5039570;28;20049;-52
2021/05/07 08:59:05;;;;;;;0.50;0.50;;;;;;;4.21;89.49;95232.78;5041790;28;20052;-52
2021/05/07 09:01:51;;;;;;;0.70;0.55;;;;;;;4.42;90.66;95243.75;5035407;28;20060;-52
2021/05/07 09:04:20;;;;;;;0.68;0.52;;;;;;;4.71;87.53;95251.22;5033320;28;20046;-53
2021/05/07 09:06:51;;;;;;;1.05;0.77;;;;;;;5.10;88.33;95253.06;5040182;28;20084;-55
2021/05/07 09:09:27;;;;;;;1.80;0.77;;;;;;;5.36;87.68;95250.41;5039632;28;20049;-50
2021/05/07 09:12:03;;;;;;;1.00;0.63;;;;;;;5.66;86.14;95258.59;5036228;28;20057;-49
2021/05/07 09:14:30;;;;;;;0.82;0.60;;;;;;;5.48;87.49;95263.16;5048913;28;20049;-52
2021/05/07 09:17:25;;;;;;;1.40;0.65;;;;;;;5.38;86.07;95264.28;5027044;28;20504;-49
2021/05/07 09:20:04;;;;;;;0.77;0.55;;;;;;;5.65;87.91;95273.09;5040115;28;20525;-53
2021/05/07 09:22:31;;;;;;;1.75;0.50;;;;;;;5.53;83.83;95264.94;5034085;28;20115;-48
2021/05/07 09:25:10;;;;;;;0.70;0.40;;;;;;;5.67;84.19;95270.13;5019757;28;20148;-48
2021/05/07 09:27:37;;;;;;;0.55;0.45;;;;;;;5.72;84.64;95284.19;5028817;28;20050;-49
2021/05/07 09:30:11;;;;;;;0.60;0.60;;;;;;;5.51;86.18;95302.78;5042300;28;20045;-51
2021/05/07 09:32:37;;;;;;;1.05;0.70;;;;;;;5.55;86.94;95305.63;5035601;28;20083;-50
2021/05/07 09:35:07;;;;;;;1.88;0.60;;;;;;;5.48;85.54;95306.09;5035999;28;20061;-48
2021/05/07 09:37:34;;;;;;;1.42;0.50;;;;;;;5.49;84.34;95306.88;5023976;28;20640;-48
2021/05/07 09:40:09;;;;;;;0.90;0.52;;;;;;;5.76;83.63;95309.28;5036701;28;20045;-51
2021/05/07 09:42:36;;;;;;;0.88;0.55;;;;;;;6.16;85.49;95311.78;5041546;28;20670;-52
2021/05/07 09:45:04;;;;;;;1.00;0.50;;;;;;;5.67;82.93;95319.22;5031924;28;20054;-56
2021/05/07 09:47:34;;;;;;;1.80;0.60;;;;;;;5.50;85.19;95325.38;5032981;28;20049;-51
2021/05/07 09:50:05;;;;;;;0.50;0.50;;;;;;;5.68;84.76;95330.75;5025651;28;20049;-52
2021/05/07 09:52:33;;;;;;;1.20;0.70;;;;;;;5.61;83.52;95325.84;5035251;28;20530;-52
2021/05/07 09:54:59;;;;;;;1.40;0.60;;;;;;;5.98;83.97;95339.75;5031353;28;20049;-50
2021/05/07 09:57:26;;;;;;;0.75;0.60;;;;;;;6.14;83.50;95354.28;5031298;28;20041;-47
2021/05/07 09:59:55;;;;;;;0.70;0.70;;;;;;;6.03;83.69;95361.09;5031465;28;20116;-50
2021/05/07 10:02:22;;;;;;;0.82;0.60;;;;;;;5.83;83.40;95365.97;5031145;28;20057;-51
2021/05/07 10:04:49;;;;;;;1.17;0.70;;;;;;;5.65;82.53;95364.34;5034988;28;20127;-47
2021/05/07 10:07:15;;;;;;;1.48;0.90;;;;;;;5.89;85.42;95373.88;5029989;28;20180;-48
2021/05/07 10:09:42;;;;;;;1.83;1.20;;;;;;;5.72;84.47;95388.84;5037409;28;20046;-48
2021/05/07 10:12:14;;;;;;;4.97;1.83;;;;;;;5.79;85.50;95383.81;5045743;28;20067;-48
2021/05/07 10:14:44;;;;;;;1.60;1.25;;;;;;;6.08;85.41;95385.13;5029682;28;20467;-50
2021/05/07 10:17:12;;;;;;;1.17;0.90;;;;;;;5.80;83.09;95388.06;5032007;28;20052;-52
2021/05/07 10:19:41;;;;;;;1.35;0.90;;;;;;;5.89;84.55;95384.59;5041050;28;20061;-54
2021/05/07 10:22:26;;;;;;;1.02;0.90;;;;;;;6.13;85.15;95398.38;5048937;28;20593;-48
2021/05/07 10:24:53;;;;;;;1.52;1.20;;;;;;;6.37;84.96;95389.03;5033566;28;20059;-53
2021/05/07 10:27:22;;;;;;;1.88;0.90;;;;;;;5.93;83.25;95381.00;5040255;28;20055;-55
2021/05/07 10:29:58;;;;;;;0.88;0.80;;;;;;;6.29;83.02;95399.47;5029998;28;20379;-49
2021/05/07 10:32:37;;;;;;;1.38;1.00;;;;;;;6.22;82.98;95403.75;5044892;28;21146;-51
2021/05/07 10:35:05;;;;;;;1.67;1.10;;;;;;;6.13;81.70;95398.38;5029496;28;20104;-47
2021/05/07 10:37:44;;;;;;;1.45;1.10;;;;;;;6.07;82.53;95405.00;5011850;28;20064;-47
2021/05/07 10:40:22;;;;;;;1.60;1.23;;;;;;;6.10;81.57;95409.75;5015320;28;20602;-48
2021/05/07 10:42:58;;;;;;;1.95;1.30;;;;;;;6.18;80.75;95419.72;5020310;28;20118;-52
2021/05/07 10:45:43;;;;;;;3.70;1.63;;;;;;;6.05;81.68;95410.69;5010493;28;20108;-51
2021/05/07 10:48:20;;;;;;;2.17;1.50;;;;;;;6.06;81.08;95422.22;5027100;28;20052;-50
2021/05/07 10:50:53;;;;;;;2.10;1.20;;;;;;;6.19;81.36;95417.81;5029413;28;20049;-49
2021/05/07 10:53:28;;;;;;;2.40;1.63;;;;;;;6.46;81.70;95422.84;5060453;22;20083;-45
2021/05/07 10:55:56;;;;;;;2.40;1.42;;;;;;;6.68;80.58;95424.53;5068723;28;20052;-47
2021/05/07 10:58:37;;;;;;;2.10;1.30;;;;;;;6.76;80.32;95425.66;5079780;28;20063;-49
2021/05/07 11:01:23;;;;;;;1.50;1.20;;;;;;;7.22;80.72;95430.25;5077309;28;20139;-47
2021/05/07 11:04:11;;;;;;;1.98;1.45;;;;;;;6.81;78.79;95427.38;5061093;28;20055;-46
2021/05/07 11:06:41;;;;;;;1.92;1.40;;;;;;;6.99;77.50;95431.59;5035244;28;20110;-48
2021/05/07 11:09:22;;;;;;;2.92;1.60;;;;;;;7.08;76.81;95435.03;5059896;28;20115;-45
2021/05/07 11:11:51;;;;;;;1.75;1.40;;;;;;;7.26;77.68;95441.94;5051688;28;20052;-46
2021/05/07 11:14:23;;;;;;;1.65;1.23;;;;;;;7.35;74.28;95443.81;5052506;28;20048;-44
2021/05/07 11:16:51;;;;;;;3.20;1.80;;;;;;;7.38;73.48;95451.25;5031955;28;20053;-49
2021/05/07 11:19:26;;;;;;;4.63;2.45;;;;;;;7.69;74.51;95464.41;5049405;28;20045;-52
2021/05/07 11:22:13;;;;;;;3.38;1.90;;;;;;;7.60;74.60;95460.94;5051770;28;20044;-48
2021/05/07 11:24:42;;;;;;;3.38;2.45;;;;;;;7.19;71.79;95459.72;5033385;28;20057;-47
2021/05/07 11:30:13;;;;;;;3.05;2.22;;;;;;;7.29;71.14;95472.03;5033768;28;20045;-44
2021/05/07 11:32:40;;;;;;;2.30;1.70;;;;;;;7.20;70.65;95475.50;5032744;28;20123;-44
2021/05/07 11:35:09;;;;;;;3.30;2.40;;;;;;;7.26;71.10;95474.22;5034341;28;20095;-48
2021/05/07 11:37:41;;;;;;;3.55;2.78;;;;;;;7.32;72.03;95474.84;5039293;28;20045;-47
2021/05/07 11:40:10;;;;;;;3.20;2.38;;;;;;;7.22;70.99;95492.13;5051238;28;20478;-44
2021/05/07 11:42:45;;;;;;;4.85;3.20;;;;;;;7.16;71.75;95493.41;5052850;28;20049;-46
2021/05/07 11:45:24;;;;;;;3.90;3.28;;;;;;;6.85;70.76;95498.22;5044895;28;20152;-48
2021/05/07 11:47:51;;;;;;;4.55;2.95;;;;;;;6.86;71.31;95486.34;5031905;28;20052;-48
2021/05/07 11:50:21;;;;;;;4.45;3.10;;;;;;;6.70;72.43;95503.00;5035927;28;20044;-48
2021/05/07 11:52:49;;;;;;;6.60;4.10;;;;;;;6.71;72.79;95509.94;5044676;28;20049;-47